Time;durP1;ratioP1;P1;durP2;ratioP2;P2;SDS_P1;SDS_P2;PMS_P1;PMS_P2;Temp;Humidity;BMP_temperature;BMP_pressure;BME280_temperature;BME280_humidity;BME280_pressure;Samples;Min_cycle;Max_cycle;Signal;HPM_P1;HPM_P2
2023/08/08 00:01:24;;;;;;;0.10;0.10;;;;;;;;;;5051909;28;20453;-85
2023/08/08 00:03:50;;;;;;;0.10;0.10;;;;;;;;;;5052043;28;20028;-85
2023/08/08 00:06:16;;;;;;;0.10;0.10;;;;;;;;;;5052175;28;20028;-85
2023/08/08 00:08:42;;;;;;;0.20;0.20;;;;;;;;;;5051729;28;20032;-85
2023/08/08 00:11:08;;;;;;;0.20;0.20;;;;;;;;;;5052410;28;20424;-85
2023/08/08 00:13:34;;;;;;;0.00;0.00;;;;;;;;;;5052117;28;20032;-85
2023/08/08 00:16:00;;;;;;;0.13;0.13;;;;;;;;;;5051797;28;20032;-85
2023/08/08 00:18:26;;;;;;;0.10;0.10;;;;;;;;;;5051384;28;20385;-85
2023/08/08 00:20:52;;;;;;;0.15;0.15;;;;;;;;;;5051603;28;20099;-84
2023/08/08 00:23:18;;;;;;;0.20;0.20;;;;;;;;;;5050118;28;20033;-85
2023/08/08 00:25:49;;;;;;;0.10;0.10;;;;;;;;;;5051801;28;20027;-85
2023/08/08 00:28:15;;;;;;;0.03;0.03;;;;;;;;;;5052272;28;20028;-85
2023/08/08 00:30:41;;;;;;;0.10;0.10;;;;;;;;;;5052433;28;20064;-85
2023/08/08 00:33:07;;;;;;;0.03;0.03;;;;;;;;;;5052052;28;20029;-85
2023/08/08 00:35:33;;;;;;;0.10;0.10;;;;;;;;;;5051273;28;20033;-85
2023/08/08 00:37:59;;;;;;;0.10;0.10;;;;;;;;;;5051797;28;20033;-85
2023/08/08 00:40:25;;;;;;;0.25;0.25;;;;;;;;;;5051594;28;20036;-85
2023/08/08 00:42:51;;;;;;;0.28;0.28;;;;;;;;;;5051490;28;20055;-85
2023/08/08 00:45:17;;;;;;;0.35;0.25;;;;;;;;;;5051514;28;20029;-84
2023/08/08 00:47:43;;;;;;;0.10;0.10;;;;;;;;;;5051994;28;20026;-85
2023/08/08 00:50:10;;;;;;;0.10;0.10;;;;;;;;;;5051736;28;20074;-85
2023/08/08 00:52:38;;;;;;;0.10;0.10;;;;;;;;;;5051908;28;20021;-85
2023/08/08 00:55:04;;;;;;;0.10;0.10;;;;;;;;;;5051496;28;20029;-85
2023/08/08 00:57:30;;;;;;;0.20;0.20;;;;;;;;;;5051630;28;20033;-85
2023/08/08 00:59:56;;;;;;;0.10;0.10;;;;;;;;;;5051918;28;20021;-85
2023/08/08 01:02:22;;;;;;;0.10;0.10;;;;;;;;;;5051336;28;20396;-85
2023/08/08 01:04:48;;;;;;;0.10;0.10;;;;;;;;;;5054822;28;20104;-85
2023/08/08 01:07:18;;;;;;;0.10;0.10;;;;;;;;;;5055188;28;20463;-85
2023/08/08 01:09:52;;;;;;;0.10;0.10;;;;;;;;;;5055544;28;20047;-85
2023/08/08 01:12:18;;;;;;;0.13;0.13;;;;;;;;;;5055579;28;20112;-85
2023/08/08 01:14:45;;;;;;;0.05;0.05;;;;;;;;;;5055158;28;20029;-85
2023/08/08 01:17:12;;;;;;;0.10;0.10;;;;;;;;;;5055238;28;20349;-85
2023/08/08 01:19:38;;;;;;;0.10;0.10;;;;;;;;;;5054845;28;20028;-85
2023/08/08 01:22:10;;;;;;;0.10;0.10;;;;;;;;;;5054945;28;20052;-85
2023/08/08 01:24:37;;;;;;;0.10;0.10;;;;;;;;;;5055374;28;20025;-85
2023/08/08 01:27:03;;;;;;;0.10;0.10;;;;;;;;;;5054914;28;20088;-85
2023/08/08 01:29:29;;;;;;;0.10;0.10;;;;;;;;;;5055003;28;20021;-85
2023/08/08 01:31:55;;;;;;;0.10;0.10;;;;;;;;;;5054969;28;20378;-86
2023/08/08 01:34:22;;;;;;;0.10;0.10;;;;;;;;;;5054386;28;20108;-85
2023/08/08 01:37:07;;;;;;;0.20;0.20;;;;;;;;;;5054940;28;20091;-85
2023/08/08 01:39:34;;;;;;;0.10;0.10;;;;;;;;;;5055357;28;20020;-85
2023/08/08 01:42:01;;;;;;;0.10;0.10;;;;;;;;;;5054962;28;20032;-85
2023/08/08 01:44:28;;;;;;;0.10;0.10;;;;;;;;;;5055405;28;20032;-85
2023/08/08 01:46:54;;;;;;;0.10;0.10;;;;;;;;;;5054713;28;20029;-85
2023/08/08 01:49:20;;;;;;;0.15;0.15;;;;;;;;;;5054137;28;20052;-85
2023/08/08 01:51:48;;;;;;;0.10;0.10;;;;;;;;;;5054664;28;20098;-85
2023/08/08 01:54:14;;;;;;;0.10;0.10;;;;;;;;;;5054642;28;20017;-84
2023/08/08 01:56:40;;;;;;;0.10;0.10;;;;;;;;;;5054579;28;20171;-85
2023/08/08 01:59:06;;;;;;;0.10;0.10;;;;;;;;;;5054382;28;20100;-85
2023/08/08 02:01:32;;;;;;;0.00;0.00;;;;;;;;;;5054762;28;20044;-85
2023/08/08 02:03:58;;;;;;;0.20;0.20;;;;;;;;;;5054471;28;20074;-85
2023/08/08 02:06:24;;;;;;;0.10;0.10;;;;;;;;;;5054137;28;20060;-85
2023/08/08 02:08:50;;;;;;;0.10;0.10;;;;;;;;;;5054648;28;20103;-85
2023/08/08 02:11:16;;;;;;;0.10;0.10;;;;;;;;;;5054428;28;20032;-84
2023/08/08 02:13:42;;;;;;;0.10;0.10;;;;;;;;;;5053238;28;20021;-85
2023/08/08 02:16:08;;;;;;;0.10;0.10;;;;;;;;;;5053984;28;20440;-84
2023/08/08 02:18:34;;;;;;;0.13;0.13;;;;;;;;;;5054174;28;20025;-85
2023/08/08 02:21:00;;;;;;;0.10;0.10;;;;;;;;;;5053771;28;20047;-85
2023/08/08 02:23:26;;;;;;;0.13;0.13;;;;;;;;;;5053379;28;20108;-85
2023/08/08 02:25:52;;;;;;;0.10;0.10;;;;;;;;;;5054155;28;20067;-85
2023/08/08 02:28:18;;;;;;;0.17;0.17;;;;;;;;;;5054819;28;20047;-84
2023/08/08 02:30:44;;;;;;;0.10;0.10;;;;;;;;;;5053722;28;20385;-84
2023/08/08 02:33:10;;;;;;;0.10;0.10;;;;;;;;;;5053181;28;20431;-85
2023/08/08 02:35:37;;;;;;;0.10;0.10;;;;;;;;;;5054486;28;20021;-85
2023/08/08 02:38:03;;;;;;;0.10;0.10;;;;;;;;;;5053411;28;20047;-85
2023/08/08 02:40:29;;;;;;;0.15;0.15;;;;;;;;;;5053415;28;20028;-84
2023/08/08 02:42:55;;;;;;;0.13;0.13;;;;;;;;;;5053534;28;20029;-85
2023/08/08 02:45:21;;;;;;;0.10;0.10;;;;;;;;;;5053891;28;20478;-85
2023/08/08 02:47:47;;;;;;;0.10;0.10;;;;;;;;;;5053949;28;20098;-85
2023/08/08 02:50:13;;;;;;;0.20;0.20;;;;;;;;;;5053453;28;20431;-85
2023/08/08 02:52:39;;;;;;;0.10;0.10;;;;;;;;;;5053184;28;20029;-85
2023/08/08 02:55:06;;;;;;;0.10;0.10;;;;;;;;;;5053087;28;20075;-85
2023/08/08 02:57:31;;;;;;;0.10;0.10;;;;;;;;;;5053728;28;20029;-85
2023/08/08 02:59:57;;;;;;;0.32;0.32;;;;;;;;;;5053201;28;20021;-85
2023/08/08 03:02:24;;;;;;;0.13;0.13;;;;;;;;;;5052630;28;20404;-86
2023/08/08 03:04:50;;;;;;;0.10;0.10;;;;;;;;;;5053374;28;20025;-84
2023/08/08 03:07:16;;;;;;;0.20;0.20;;;;;;;;;;5053072;28;20063;-85
2023/08/08 03:09:42;;;;;;;0.15;0.15;;;;;;;;;;5053148;28;20021;-85
2023/08/08 03:12:08;;;;;;;0.10;0.10;;;;;;;;;;5053480;28;20017;-84
2023/08/08 03:14:34;;;;;;;0.32;0.32;;;;;;;;;;5052777;28;20025;-85
2023/08/08 03:17:00;;;;;;;0.05;0.05;;;;;;;;;;5053241;28;20500;-85
2023/08/08 03:19:26;;;;;;;0.20;0.20;;;;;;;;;;5053204;28;20033;-84
2023/08/08 03:21:52;;;;;;;0.10;0.10;;;;;;;;;;5052851;28;20051;-84
2023/08/08 03:24:18;;;;;;;0.10;0.10;;;;;;;;;;5052736;28;20366;-84
2023/08/08 03:26:44;;;;;;;0.10;0.10;;;;;;;;;;5051951;28;20031;-85
2023/08/08 03:29:12;;;;;;;0.10;0.10;;;;;;;;;;5053005;28;20028;-84
2023/08/08 03:31:38;;;;;;;0.10;0.10;;;;;;;;;;5052181;28;20083;-84
2023/08/08 03:34:04;;;;;;;0.10;0.10;;;;;;;;;;5051349;28;20033;-84
2023/08/08 03:36:31;;;;;;;0.10;0.10;;;;;;;;;;5053269;28;20037;-84
2023/08/08 03:38:57;;;;;;;0.20;0.20;;;;;;;;;;5052408;28;20053;-85
2023/08/08 03:41:23;;;;;;;0.10;0.10;;;;;;;;;;5052764;28;20556;-85
2023/08/08 03:43:49;;;;;;;0.10;0.10;;;;;;;;;;5052392;28;20109;-84
2023/08/08 03:46:15;;;;;;;0.10;0.10;;;;;;;;;;5052701;28;20099;-84
2023/08/08 03:48:42;;;;;;;0.10;0.10;;;;;;;;;;5052168;28;20017;-84
2023/08/08 03:51:08;;;;;;;0.20;0.20;;;;;;;;;;5051997;28;20033;-84
2023/08/08 03:53:34;;;;;;;0.10;0.10;;;;;;;;;;5052572;28;20029;-84
2023/08/08 03:56:00;;;;;;;0.25;0.25;;;;;;;;;;5052165;28;20156;-84
2023/08/08 03:58:26;;;;;;;0.10;0.10;;;;;;;;;;5051687;28;20023;-84
2023/08/08 04:00:52;;;;;;;0.57;0.57;;;;;;;;;;5051927;28;20112;-84
2023/08/08 04:03:19;;;;;;;0.17;0.17;;;;;;;;;;5052349;28;20052;-84
2023/08/08 04:05:48;;;;;;;0.20;0.20;;;;;;;;;;5052183;28;20060;-84
2023/08/08 04:08:15;;;;;;;0.20;0.20;;;;;;;;;;5052063;28;20194;-84
2023/08/08 04:10:41;;;;;;;0.30;0.30;;;;;;;;;;5052283;28;20061;-84
2023/08/08 04:13:07;;;;;;;0.10;0.10;;;;;;;;;;5051421;28;20591;-84
2023/08/08 04:15:33;;;;;;;0.10;0.10;;;;;;;;;;5051726;28;20151;-83
2023/08/08 04:18:00;;;;;;;0.32;0.20;;;;;;;;;;5052136;28;20108;-84
2023/08/08 04:20:26;;;;;;;0.20;0.20;;;;;;;;;;5051772;28;20048;-84
2023/08/08 04:22:51;;;;;;;0.20;0.20;;;;;;;;;;5052047;28;20033;-84
2023/08/08 04:25:18;;;;;;;0.20;0.20;;;;;;;;;;5051655;28;20480;-84
2023/08/08 04:27:44;;;;;;;0.10;0.10;;;;;;;;;;5051412;28;20366;-84
2023/08/08 04:30:10;;;;;;;0.15;0.15;;;;;;;;;;5051996;28;20028;-84
2023/08/08 04:32:36;;;;;;;0.38;0.38;;;;;;;;;;5052293;28;20090;-85
2023/08/08 04:35:02;;;;;;;0.10;0.10;;;;;;;;;;5051478;28;20477;-84
2023/08/08 04:37:28;;;;;;;0.10;0.10;;;;;;;;;;5054725;28;20099;-84
2023/08/08 04:39:54;;;;;;;0.20;0.20;;;;;;;;;;5058259;28;20397;-84
2023/08/08 04:42:20;;;;;;;0.10;0.10;;;;;;;;;;5058074;28;20123;-85
2023/08/08 04:44:46;;;;;;;0.10;0.10;;;;;;;;;;5058341;28;20123;-85
2023/08/08 04:47:12;;;;;;;0.20;0.20;;;;;;;;;;5057989;28;20096;-83
2023/08/08 04:49:38;;;;;;;0.10;0.10;;;;;;;;;;5058089;28;20518;-84
2023/08/08 04:52:04;;;;;;;0.10;0.10;;;;;;;;;;5058330;28;20036;-85
2023/08/08 04:54:30;;;;;;;0.10;0.10;;;;;;;;;;5057071;28;20028;-84
2023/08/08 04:56:56;;;;;;;0.15;0.15;;;;;;;;;;5057833;28;20047;-84
2023/08/08 04:59:22;;;;;;;0.10;0.10;;;;;;;;;;5057986;28;20025;-85
2023/08/08 05:01:48;;;;;;;0.10;0.10;;;;;;;;;;5058288;28;20029;-85
2023/08/08 05:04:14;;;;;;;0.10;0.10;;;;;;;;;;5058226;28;20100;-84
2023/08/08 05:06:40;;;;;;;0.10;0.10;;;;;;;;;;5059122;28;20395;-84
2023/08/08 05:09:09;;;;;;;0.35;0.35;;;;;;;;;;5058026;28;20029;-84
2023/08/08 05:11:35;;;;;;;0.20;0.20;;;;;;;;;;5058169;28;20032;-84
2023/08/08 05:14:01;;;;;;;0.10;0.10;;;;;;;;;;5057830;28;20116;-85
2023/08/08 05:16:27;;;;;;;0.17;0.17;;;;;;;;;;5057878;28;20586;-84
2023/08/08 05:18:53;;;;;;;0.10;0.10;;;;;;;;;;5057934;28;20083;-84
2023/08/08 05:21:20;;;;;;;0.08;0.08;;;;;;;;;;5057744;28;20124;-84
2023/08/08 05:23:46;;;;;;;0.28;0.28;;;;;;;;;;5058264;28;20028;-84
2023/08/08 05:26:12;;;;;;;0.10;0.10;;;;;;;;;;5057865;28;20033;-84
2023/08/08 05:28:38;;;;;;;0.10;0.10;;;;;;;;;;5057682;28;20413;-84
2023/08/08 05:31:04;;;;;;;0.17;0.17;;;;;;;;;;5058282;28;20079;-84
2023/08/08 05:33:30;;;;;;;0.15;0.15;;;;;;;;;;5057827;28;20029;-84
2023/08/08 05:35:56;;;;;;;0.10;0.10;;;;;;;;;;5057990;28;20111;-84
2023/08/08 05:38:22;;;;;;;0.10;0.10;;;;;;;;;;5057680;28;20100;-85
2023/08/08 05:40:48;;;;;;;0.13;0.13;;;;;;;;;;5058456;28;20048;-84
2023/08/08 05:43:18;;;;;;;0.10;0.10;;;;;;;;;;5058173;28;20085;-84
2023/08/08 05:45:44;;;;;;;0.10;0.10;;;;;;;;;;5057704;28;20032;-84
2023/08/08 05:48:12;;;;;;;0.10;0.10;;;;;;;;;;5057499;28;20029;-84
2023/08/08 05:50:38;;;;;;;0.20;0.20;;;;;;;;;;5054083;28;20013;-84
2023/08/08 05:53:04;;;;;;;0.10;0.10;;;;;;;;;;5055257;28;20056;-84
2023/08/08 05:55:30;;;;;;;0.10;0.10;;;;;;;;;;5054340;28;20068;-84
2023/08/08 05:57:56;;;;;;;0.10;0.10;;;;;;;;;;5054260;28;20029;-84
2023/08/08 06:00:22;;;;;;;0.30;0.30;;;;;;;;;;5054563;28;20081;-85
2023/08/08 06:02:48;;;;;;;0.10;0.10;;;;;;;;;;5054152;28;20508;-85
2023/08/08 06:05:14;;;;;;;0.10;0.10;;;;;;;;;;5054077;28;20032;-84
2023/08/08 06:07:40;;;;;;;0.10;0.10;;;;;;;;;;5054685;28;20025;-84
2023/08/08 06:10:08;;;;;;;0.10;0.10;;;;;;;;;;5053830;28;20053;-84
2023/08/08 06:12:34;;;;;;;0.10;0.10;;;;;;;;;;5053896;28;20505;-84
2023/08/08 06:15:00;;;;;;;0.10;0.10;;;;;;;;;;5054295;28;20543;-84
2023/08/08 06:17:26;;;;;;;0.20;0.20;;;;;;;;;;5054188;28;20463;-84
2023/08/08 06:19:53;;;;;;;0.10;0.10;;;;;;;;;;5054569;28;20029;-84
2023/08/08 06:22:21;;;;;;;0.20;0.20;;;;;;;;;;5053775;28;20057;-84
2023/08/08 06:24:47;;;;;;;0.10;0.10;;;;;;;;;;5055505;28;20025;-84
2023/08/08 06:27:13;;;;;;;0.20;0.20;;;;;;;;;;5053854;28;20507;-84
2023/08/08 06:29:39;;;;;;;0.32;0.30;;;;;;;;;;5054133;28;20017;-84
2023/08/08 06:32:05;;;;;;;0.20;0.20;;;;;;;;;;5053860;28;20516;-85
2023/08/08 06:34:31;;;;;;;0.20;0.20;;;;;;;;;;5053649;28;20059;-83
2023/08/08 06:36:57;;;;;;;0.10;0.10;;;;;;;;;;5053965;28;20033;-84
2023/08/08 06:39:23;;;;;;;0.20;0.20;;;;;;;;;;5053642;28;20041;-84
2023/08/08 06:41:49;;;;;;;0.10;0.10;;;;;;;;;;5054292;28;20044;-84
2023/08/08 06:44:15;;;;;;;0.10;0.10;;;;;;;;;;5053489;28;20487;-85
2023/08/08 06:46:41;;;;;;;0.15;0.13;;;;;;;;;;5053424;28;20108;-84
2023/08/08 06:49:08;;;;;;;0.10;0.10;;;;;;;;;;5054207;28;20021;-84
2023/08/08 06:51:35;;;;;;;0.20;0.20;;;;;;;;;;5053445;28;20040;-91
2023/08/08 06:54:01;;;;;;;0.10;0.10;;;;;;;;;;5053771;28;20128;-91
2023/08/08 06:56:27;;;;;;;0.20;0.20;;;;;;;;;;5053715;28;20037;-85
2023/08/08 06:58:53;;;;;;;0.17;0.17;;;;;;;;;;5053385;28;20025;-87
2023/08/08 07:01:20;;;;;;;0.10;0.10;;;;;;;;;;5052325;28;20401;-88
2023/08/08 07:03:46;;;;;;;0.10;0.10;;;;;;;;;;5053518;28;20025;-87
2023/08/08 07:06:12;;;;;;;0.10;0.10;;;;;;;;;;5053220;28;20048;-87
2023/08/08 07:08:42;;;;;;;0.20;0.20;;;;;;;;;;5052998;28;20021;-87
2023/08/08 07:11:08;;;;;;;0.20;0.20;;;;;;;;;;5053480;28;20032;-87
2023/08/08 07:13:34;;;;;;;0.10;0.10;;;;;;;;;;5053627;28;20021;-87
2023/08/08 07:16:00;;;;;;;0.10;0.10;;;;;;;;;;5052965;28;20106;-87
2023/08/08 07:18:26;;;;;;;0.10;0.10;;;;;;;;;;5052823;28;20100;-87
2023/08/08 07:20:52;;;;;;;0.20;0.20;;;;;;;;;;5053066;28;20050;-87
2023/08/08 07:23:18;;;;;;;0.10;0.10;;;;;;;;;;5052711;28;20481;-87
2023/08/08 07:25:46;;;;;;;0.10;0.10;;;;;;;;;;5052642;28;20031;-87
2023/08/08 07:28:14;;;;;;;0.10;0.10;;;;;;;;;;5053046;28;20433;-87
2023/08/08 07:30:40;;;;;;;0.10;0.10;;;;;;;;;;5052852;28;20112;-86
2023/08/08 07:33:08;;;;;;;0.10;0.10;;;;;;;;;;5052848;28;20029;-87
2023/08/08 07:35:34;;;;;;;0.75;0.75;;;;;;;;;;5051884;28;20048;-86
2023/08/08 07:38:00;;;;;;;0.30;0.30;;;;;;;;;;5052204;28;20017;-87
2023/08/08 07:40:26;;;;;;;0.10;0.10;;;;;;;;;;5052671;28;20029;-87
2023/08/08 07:42:53;;;;;;;0.10;0.10;;;;;;;;;;5052509;28;20025;-87
2023/08/08 07:45:19;;;;;;;0.10;0.10;;;;;;;;;;5052839;28;20123;-87
2023/08/08 07:47:45;;;;;;;0.10;0.10;;;;;;;;;;5052443;28;20539;-88
2023/08/08 07:50:11;;;;;;;0.00;0.00;;;;;;;;;;5052530;28;20478;-87
2023/08/08 07:52:37;;;;;;;0.10;0.10;;;;;;;;;;5052318;28;20032;-87
2023/08/08 07:55:04;;;;;;;0.10;0.10;;;;;;;;;;5050973;28;20370;-85
2023/08/08 07:57:31;;;;;;;0.10;0.10;;;;;;;;;;5051229;28;20033;-88
2023/08/08 07:59:57;;;;;;;0.00;0.00;;;;;;;;;;5052206;28;20029;-88
2023/08/08 08:02:23;;;;;;;0.20;0.20;;;;;;;;;;5052254;28;20052;-88
2023/08/08 08:04:49;;;;;;;0.10;0.10;;;;;;;;;;5051946;28;20037;-87
2023/08/08 08:07:15;;;;;;;0.10;0.10;;;;;;;;;;5051887;28;20040;-87
2023/08/08 08:09:42;;;;;;;0.10;0.10;;;;;;;;;;5051868;28;20079;-87
2023/08/08 08:12:08;;;;;;;0.10;0.10;;;;;;;;;;5050877;28;20033;-86
2023/08/08 08:14:35;;;;;;;0.10;0.10;;;;;;;;;;5053023;28;20108;-88
2023/08/08 08:17:01;;;;;;;0.10;0.10;;;;;;;;;;5051905;28;20135;-86
2023/08/08 08:19:27;;;;;;;0.30;0.30;;;;;;;;;;5050880;28;20512;-87
2023/08/08 08:21:53;;;;;;;0.22;0.10;;;;;;;;;;5051588;28;20033;-87
2023/08/08 08:24:19;;;;;;;0.30;0.30;;;;;;;;;;5042847;28;20104;-86
2023/08/08 08:26:45;;;;;;;0.20;0.20;;;;;;;;;;5052117;28;20021;-86
2023/08/08 08:29:10;;;;;;;1.02;1.02;;;;;;;;;;5052234;28;20032;-86
2023/08/08 08:31:38;;;;;;;0.10;0.10;;;;;;;;;;5041086;28;20485;-86
2023/08/08 08:34:04;;;;;;;0.00;0.00;;;;;;;;;;5046761;28;20025;-87
2023/08/08 08:36:30;;;;;;;0.10;0.10;;;;;;;;;;5052004;28;20485;-87
2023/08/08 08:38:56;;;;;;;0.20;0.20;;;;;;;;;;5050140;28;20036;-87
2023/08/08 08:41:25;;;;;;;0.20;0.20;;;;;;;;;;5049980;28;20382;-86
2023/08/08 08:43:51;;;;;;;0.10;0.10;;;;;;;;;;5048106;28;20022;-87
2023/08/08 08:46:20;;;;;;;0.10;0.10;;;;;;;;;;5050471;28;20036;-86
2023/08/08 08:48:47;;;;;;;0.10;0.10;;;;;;;;;;5051030;28;20017;-87
2023/08/08 08:51:15;;;;;;;0.00;0.00;;;;;;;;;;5051533;28;20033;-86
2023/08/08 08:53:46;;;;;;;0.10;0.10;;;;;;;;;;5051336;28;20022;-86
2023/08/08 08:56:13;;;;;;;0.10;0.10;;;;;;;;;;5051824;28;20128;-86
2023/08/08 08:58:39;;;;;;;0.05;0.05;;;;;;;;;;5051843;28;20024;-86
2023/08/08 09:01:05;;;;;;;0.10;0.10;;;;;;;;;;5051534;28;20039;-85
2023/08/08 09:03:31;;;;;;;0.00;0.00;;;;;;;;;;5050755;28;20032;-86
2023/08/08 09:05:58;;;;;;;0.10;0.10;;;;;;;;;;5050303;28;20634;-85
2023/08/08 09:08:24;;;;;;;0.00;0.00;;;;;;;;;;5041375;28;20025;-86
2023/08/08 09:10:50;;;;;;;0.10;0.10;;;;;;;;;;5050909;28;20036;-93
2023/08/08 09:13:17;;;;;;;0.10;0.10;;;;;;;;;;5051309;28;20481;-85
2023/08/08 09:15:43;;;;;;;0.10;0.10;;;;;;;;;;5051216;28;20076;-86
2023/08/08 09:18:09;;;;;;;0.10;0.10;;;;;;;;;;5051114;28;20049;-86
2023/08/08 09:20:35;;;;;;;0.20;0.20;;;;;;;;;;5051480;28;20067;-85
2023/08/08 09:23:01;;;;;;;0.00;0.00;;;;;;;;;;5051451;28;20068;-85
2023/08/08 09:25:27;;;;;;;0.10;0.10;;;;;;;;;;5034078;28;20044;-84
2023/08/08 09:27:53;;;;;;;0.10;0.10;;;;;;;;;;5053573;28;20143;-84
2023/08/08 09:30:20;;;;;;;0.00;0.00;;;;;;;;;;5054959;28;20032;-85
2023/08/08 09:32:46;;;;;;;0.80;0.20;;;;;;;;;;5055403;28;20068;-85
2023/08/08 09:35:12;;;;;;;0.03;0.03;;;;;;;;;;5054957;28;20065;-85
2023/08/08 09:37:38;;;;;;;0.10;0.10;;;;;;;;;;5054159;28;20029;-85
2023/08/08 09:40:07;;;;;;;0.10;0.10;;;;;;;;;;5053463;28;20041;-85
2023/08/08 09:42:33;;;;;;;0.20;0.10;;;;;;;;;;5054205;28;20160;-86
2023/08/08 09:45:00;;;;;;;0.28;0.28;;;;;;;;;;5054665;28;20057;-85
2023/08/08 09:47:33;;;;;;;0.20;0.20;;;;;;;;;;5053836;28;20574;-85
2023/08/08 09:50:00;;;;;;;0.10;0.10;;;;;;;;;;5043620;28;20040;-85
2023/08/08 09:52:27;;;;;;;0.10;0.10;;;;;;;;;;5054582;28;20037;-85
2023/08/08 09:54:53;;;;;;;0.08;0.08;;;;;;;;;;5054430;28;20074;-85
2023/08/08 09:57:19;;;;;;;0.00;0.00;;;;;;;;;;5053374;28;20033;-85
2023/08/08 09:59:47;;;;;;;0.00;0.00;;;;;;;;;;5053787;28;20067;-84
2023/08/08 10:02:15;;;;;;;0.10;0.10;;;;;;;;;;5040026;28;20036;-86
2023/08/08 10:04:41;;;;;;;0.10;0.10;;;;;;;;;;5054335;28;20586;-84
2023/08/08 10:07:07;;;;;;;0.08;0.08;;;;;;;;;;5053489;28;20029;-84
2023/08/08 10:09:34;;;;;;;1.08;0.60;;;;;;;;;;5054033;28;20036;-84
2023/08/08 10:12:00;;;;;;;0.00;0.00;;;;;;;;;;5054422;28;20025;-84
2023/08/08 10:14:30;;;;;;;0.00;0.00;;;;;;;;;;5053630;28;20028;-84
2023/08/08 10:16:56;;;;;;;0.08;0.08;;;;;;;;;;5048577;28;20064;-85
2023/08/08 10:19:23;;;;;;;0.00;0.00;;;;;;;;;;5052579;28;20040;-86
2023/08/08 10:21:49;;;;;;;0.08;0.08;;;;;;;;;;5053646;28;20059;-84
2023/08/08 10:24:21;;;;;;;0.10;0.10;;;;;;;;;;5053493;28;20025;-85
2023/08/08 10:26:54;;;;;;;0.10;0.10;;;;;;;;;;5053060;28;20028;-85
2023/08/08 10:29:20;;;;;;;0.00;0.00;;;;;;;;;;5050140;28;20029;-85
2023/08/08 10:31:53;;;;;;;0.10;0.10;;;;;;;;;;5052786;28;20064;-85
2023/08/08 10:34:21;;;;;;;0.00;0.00;;;;;;;;;;5053650;28;20029;-85
2023/08/08 10:36:52;;;;;;;0.93;0.70;;;;;;;;;;5053535;28;20048;-85
2023/08/08 10:39:19;;;;;;;0.22;0.20;;;;;;;;;;5039771;28;20029;-86
2023/08/08 10:41:49;;;;;;;0.17;0.10;;;;;;;;;;5034002;28;20031;-85
2023/08/08 10:44:22;;;;;;;0.20;0.20;;;;;;;;;;5051317;28;20033;-85
2023/08/08 10:46:48;;;;;;;0.10;0.10;;;;;;;;;;5053466;28;20029;-85
2023/08/08 10:49:15;;;;;;;0.10;0.10;;;;;;;;;;5053790;28;20028;-85
2023/08/08 10:51:46;;;;;;;0.05;0.05;;;;;;;;;;5052050;28;20079;-85
2023/08/08 10:54:14;;;;;;;0.00;0.00;;;;;;;;;;5042573;28;20036;-85
2023/08/08 10:56:41;;;;;;;0.00;0.00;;;;;;;;;;5053648;28;20041;-86
2023/08/08 10:59:17;;;;;;;1.55;0.55;;;;;;;;;;5037611;28;20400;-86
2023/08/08 11:01:46;;;;;;;0.10;0.10;;;;;;;;;;5038976;28;20025;-86
2023/08/08 11:04:12;;;;;;;0.10;0.10;;;;;;;;;;5052425;28;20028;-85
2023/08/08 11:06:38;;;;;;;0.00;0.00;;;;;;;;;;5052984;28;20029;-85
2023/08/08 11:09:08;;;;;;;0.05;0.05;;;;;;;;;;5052763;28;20036;-85
2023/08/08 11:11:41;;;;;;;0.10;0.10;;;;;;;;;;5047683;28;20075;-85
2023/08/08 11:14:14;;;;;;;0.00;0.00;;;;;;;;;;5045977;28;20374;-85
2023/08/08 11:16:41;;;;;;;0.10;0.10;;;;;;;;;;5052106;28;20122;-85
2023/08/08 11:19:07;;;;;;;0.75;0.35;;;;;;;;;;5052543;28;20029;-86
2023/08/08 11:21:51;;;;;;;0.10;0.10;;;;;;;;;;5052628;28;20075;-84
2023/08/08 11:24:17;;;;;;;0.03;0.03;;;;;;;;;;5052914;28;20060;-88
2023/08/08 11:26:45;;;;;;;0.00;0.00;;;;;;;;;;5052201;28;20037;-83
2023/08/08 11:29:11;;;;;;;0.03;0.03;;;;;;;;;;5051854;28;20021;-82
2023/08/08 11:31:37;;;;;;;0.00;0.00;;;;;;;;;;5053576;28;20025;-83
2023/08/08 11:34:04;;;;;;;0.10;0.10;;;;;;;;;;5052407;28;20120;-83
2023/08/08 11:36:32;;;;;;;0.00;0.00;;;;;;;;;;5052850;28;20052;-83
2023/08/08 11:39:00;;;;;;;0.00;0.00;;;;;;;;;;5052540;28;20024;-83
2023/08/08 11:41:26;;;;;;;0.00;0.00;;;;;;;;;;5053005;28;20392;-83
2023/08/08 11:43:53;;;;;;;0.00;0.00;;;;;;;;;;5052826;28;20086;-88
2023/08/08 11:46:19;;;;;;;0.20;0.20;;;;;;;;;;5051917;28;20035;-83
2023/08/08 11:48:48;;;;;;;0.00;0.00;;;;;;;;;;5052729;28;20290;-83
2023/08/08 11:51:14;;;;;;;0.10;0.10;;;;;;;;;;5052146;28;20033;-84
2023/08/08 11:53:49;;;;;;;0.10;0.10;;;;;;;;;;5052768;28;20504;-84
2023/08/08 11:56:15;;;;;;;0.30;0.30;;;;;;;;;;5051168;28;20048;-84
2023/08/08 11:58:41;;;;;;;0.08;0.08;;;;;;;;;;5052234;28;20113;-85
2023/08/08 12:01:08;;;;;;;0.10;0.10;;;;;;;;;;5051758;28;20449;-85
2023/08/08 12:03:38;;;;;;;0.00;0.00;;;;;;;;;;5050071;28;20104;-84
2023/08/08 12:06:11;;;;;;;0.10;0.10;;;;;;;;;;5051967;28;20044;-84
2023/08/08 12:08:37;;;;;;;0.00;0.00;;;;;;;;;;5051712;28;20029;-84
2023/08/08 12:11:05;;;;;;;0.00;0.00;;;;;;;;;;5052247;28;20035;-85
2023/08/08 12:13:31;;;;;;;0.10;0.10;;;;;;;;;;5050903;28;20021;-84
2023/08/08 12:15:59;;;;;;;0.10;0.10;;;;;;;;;;5052577;28;20102;-85
2023/08/08 12:18:25;;;;;;;0.00;0.00;;;;;;;;;;5052601;28;20025;-85
2023/08/08 12:20:51;;;;;;;0.00;0.00;;;;;;;;;;5050855;28;20119;-85
2023/08/08 12:23:17;;;;;;;0.00;0.00;;;;;;;;;;5051946;28;20480;-84
2023/08/08 12:25:43;;;;;;;0.00;0.00;;;;;;;;;;5050878;28;20100;-84
2023/08/08 12:28:10;;;;;;;0.10;0.10;;;;;;;;;;5051474;28;20059;-85
2023/08/08 12:30:36;;;;;;;0.00;0.00;;;;;;;;;;5051113;28;20111;-84
2023/08/08 12:33:02;;;;;;;0.22;0.22;;;;;;;;;;5045996;28;20056;-84
2023/08/08 12:35:28;;;;;;;0.10;0.10;;;;;;;;;;5030416;28;20037;-85
2023/08/08 12:37:54;;;;;;;0.00;0.00;;;;;;;;;;5043373;28;20029;-85
2023/08/08 12:40:20;;;;;;;0.00;0.00;;;;;;;;;;5059877;28;20047;-83
2023/08/08 12:42:46;;;;;;;0.00;0.00;;;;;;;;;;5051285;28;20037;-83
2023/08/08 12:45:12;;;;;;;0.00;0.00;;;;;;;;;;5042921;28;20056;-83
2023/08/08 12:47:41;;;;;;;0.00;0.00;;;;;;;;;;5031937;28;20018;-83
2023/08/08 12:50:08;;;;;;;0.08;0.08;;;;;;;;;;5051655;28;20029;-81
2023/08/08 12:52:34;;;;;;;0.00;0.00;;;;;;;;;;5051449;28;20104;-80
2023/08/08 12:55:00;;;;;;;0.03;0.03;;;;;;;;;;5051265;28;20029;-82
2023/08/08 12:57:26;;;;;;;0.00;0.00;;;;;;;;;;5051000;28;20421;-82
2023/08/08 12:59:52;;;;;;;0.13;0.13;;;;;;;;;;5055440;28;20432;-82
2023/08/08 13:02:18;;;;;;;0.10;0.10;;;;;;;;;;5055980;28;20025;-83
2023/08/08 13:04:44;;;;;;;0.10;0.10;;;;;;;;;;5055750;28;20025;-82
2023/08/08 13:07:10;;;;;;;0.00;0.00;;;;;;;;;;5055817;28;20060;-82
2023/08/08 13:09:37;;;;;;;0.17;0.17;;;;;;;;;;5055523;28;20056;-82
2023/08/08 13:12:03;;;;;;;0.10;0.10;;;;;;;;;;5055585;28;20499;-82
2023/08/08 13:14:29;;;;;;;0.03;0.03;;;;;;;;;;5055965;28;20053;-82
2023/08/08 13:16:55;;;;;;;0.00;0.00;;;;;;;;;;5055138;28;20061;-82
2023/08/08 13:19:24;;;;;;;0.00;0.00;;;;;;;;;;5055679;28;20055;-82
2023/08/08 13:21:50;;;;;;;0.10;0.10;;;;;;;;;;5055174;28;20037;-82
2023/08/08 13:24:17;;;;;;;0.10;0.10;;;;;;;;;;5055209;28;20443;-82
2023/08/08 13:26:43;;;;;;;0.10;0.10;;;;;;;;;;5055802;28;20459;-82
2023/08/08 13:29:09;;;;;;;0.43;0.15;;;;;;;;;;5055030;28;20028;-82
2023/08/08 13:31:35;;;;;;;0.10;0.10;;;;;;;;;;5055407;28;20063;-82
2023/08/08 13:34:01;;;;;;;0.00;0.00;;;;;;;;;;5055316;28;20062;-82
2023/08/08 13:36:27;;;;;;;0.10;0.10;;;;;;;;;;5055283;28;20044;-83
2023/08/08 13:38:53;;;;;;;0.00;0.00;;;;;;;;;;5054955;28;20029;-83
2023/08/08 13:41:19;;;;;;;0.00;0.00;;;;;;;;;;5055056;28;20397;-83
2023/08/08 13:43:45;;;;;;;0.13;0.13;;;;;;;;;;5055071;28;20056;-83
2023/08/08 13:46:11;;;;;;;0.00;0.00;;;;;;;;;;5055507;28;20044;-82
2023/08/08 13:48:37;;;;;;;0.00;0.00;;;;;;;;;;5055334;28;20021;-83
2023/08/08 13:51:03;;;;;;;0.05;0.05;;;;;;;;;;5054930;28;20374;-82
2023/08/08 13:53:29;;;;;;;0.00;0.00;;;;;;;;;;5054508;28;20159;-82
2023/08/08 13:55:56;;;;;;;0.00;0.00;;;;;;;;;;5054768;28;20056;-82
2023/08/08 13:58:22;;;;;;;0.10;0.10;;;;;;;;;;5054809;28;20029;-82
2023/08/08 14:00:51;;;;;;;0.47;0.47;;;;;;;;;;5055232;28;20106;-82
2023/08/08 14:03:17;;;;;;;0.05;0.05;;;;;;;;;;5054767;28;20040;-83
2023/08/08 14:05:43;;;;;;;0.15;0.15;;;;;;;;;;5054601;28;20017;-82
2023/08/08 14:08:09;;;;;;;0.00;0.00;;;;;;;;;;5054444;28;20103;-82
2023/08/08 14:10:36;;;;;;;0.10;0.10;;;;;;;;;;5054015;28;20032;-83
2023/08/08 14:13:02;;;;;;;0.00;0.00;;;;;;;;;;5054094;28;20087;-82
2023/08/08 14:15:29;;;;;;;0.10;0.10;;;;;;;;;;5054431;28;20389;-82
2023/08/08 14:17:55;;;;;;;0.10;0.10;;;;;;;;;;5054054;28;20052;-83
2023/08/08 14:20:21;;;;;;;0.10;0.10;;;;;;;;;;5053747;28;20095;-83
2023/08/08 14:22:47;;;;;;;0.10;0.10;;;;;;;;;;5053725;28;20029;-83
2023/08/08 14:25:13;;;;;;;0.00;0.00;;;;;;;;;;5054223;28;20086;-82
2023/08/08 14:27:39;;;;;;;0.30;0.30;;;;;;;;;;5053960;28;20564;-83
2023/08/08 14:30:06;;;;;;;0.10;0.10;;;;;;;;;;5054299;28;20044;-83
2023/08/08 14:32:32;;;;;;;0.30;0.30;;;;;;;;;;5054092;28;20017;-83
2023/08/08 14:34:58;;;;;;;0.10;0.10;;;;;;;;;;5054110;28;20111;-82
2023/08/08 14:37:25;;;;;;;0.00;0.00;;;;;;;;;;5053944;28;20045;-83
2023/08/08 14:39:51;;;;;;;0.00;0.00;;;;;;;;;;5054022;28;20506;-82